Kimble County Airport Junction US
ICAO: KJCT
IATA: JCT
Category: Medium
Scheduled Services: No

Elevation: 1749 ft
TransAlt. 18000 ft.

Airport Communications:
ASOS:119.275
HOUSTON CNTR:125.75
SAN ANGELO RDO:122.3
CTAF/UNICOM:122.8

KJCT Zoom In..

If you have problems with the map follow the link
https://www.worldairports.se/pages/airport.php?
ICAO=KJCT

Runways:

(A) RW 08 length 2255 ft width 130 ft
---- / hdg 84

(B) RW 17 length 5004 ft width 75 ft
---- / hdg 172

(C) RW 26 length 2255 ft width 130 ft
---- / hdg 264

(D) RW 35 length 5004 ft width 75 ft
---- / hdg 352

Location; KJCT
Day. 17 / Time. 20.51 Zulu
* Altimeter: 30.31
* Temperature: 09° c. 48.2°f.
* Wind from: 020° Speed 08 kn.
Dewpoint: 08° c.
Visibility: 4 Statute Miles.
Clouds: Overcast 700 ft.
Conditions: Light Rain.Conditions: Mist.

KJCT 172051Z AUTO 02008KT 4SM -RA BR OVC007 09/08 A3031 RMK AO2 CIG 006V011 SLP249 P0001 60001 T00940078 55013


Wind From 020°
Speed 08 kn.

 
 
jpsmedia.com for Web Design worldairports.se 2018   terms of use